Time;durP1;ratioP1;P1;durP2;ratioP2;P2;SDS_P1;SDS_P2;PMS_P1;PMS_P2;Temp;Humidity;BMP_temperature;BMP_pressure;BME280_temperature;BME280_humidity;BME280_pressure;Samples;Min_cycle;Max_cycle;Signal;HPM_P1;HPM_P2
2023/05/07 00:00:18;;;;;;;15.13;9.48;;;;;;;;;;4968541;28;20186;-67
2023/05/07 00:02:44;;;;;;;13.00;8.38;;;;;;;;;;4955456;28;20105;-67
2023/05/07 00:05:10;;;;;;;15.57;9.95;;;;;;;;;;4933466;28;20607;-67
2023/05/07 00:07:35;;;;;;;16.45;10.73;;;;;;;;;;4969741;28;20419;-67
2023/05/07 00:10:01;;;;;;;7.30;3.60;;;;;;;;;;4955959;28;20045;-67
2023/05/07 00:12:26;;;;;;;14.68;9.85;;;;;;;;;;4952680;28;20031;-67
2023/05/07 00:14:52;;;;;;;14.85;9.40;;;;;;;;;;4966066;28;20034;-66
2023/05/07 00:17:17;;;;;;;14.23;9.18;;;;;;;;;;4948816;28;20055;-67
2023/05/07 00:19:43;;;;;;;13.63;8.98;;;;;;;;;;4943847;28;20911;-67
2023/05/07 00:22:08;;;;;;;12.88;9.02;;;;;;;;;;4975355;28;20325;-66
2023/05/07 00:24:34;;;;;;;14.55;9.00;;;;;;;;;;4966666;28;20488;-67
2023/05/07 00:27:00;;;;;;;6.07;3.88;;;;;;;;;;4961311;28;20133;-65
2023/05/07 00:29:25;;;;;;;12.73;9.25;;;;;;;;;;4956140;28;20038;-65
2023/05/07 00:31:51;;;;;;;14.13;8.82;;;;;;;;;;4952866;28;20078;-66
2023/05/07 00:34:16;;;;;;;13.95;9.15;;;;;;;;;;4957393;28;20053;-66
2023/05/07 00:36:42;;;;;;;15.32;9.88;;;;;;;;;;4959801;28;20537;-65
2023/05/07 00:39:07;;;;;;;11.10;7.95;;;;;;;;;;4972393;28;20040;-67
2023/05/07 00:41:32;;;;;;;16.73;10.32;;;;;;;;;;4968108;28;20042;-66
2023/05/07 00:43:58;;;;;;;15.32;9.85;;;;;;;;;;4964132;28;20039;-66
2023/05/07 00:46:23;;;;;;;12.45;9.93;;;;;;;;;;4955858;28;20041;-68
2023/05/07 00:48:53;;;;;;;12.52;8.52;;;;;;;;;;4957033;28;20213;-65
2023/05/07 00:51:18;;;;;;;11.70;7.47;;;;;;;;;;4957665;28;20057;-67
2023/05/07 00:53:44;;;;;;;10.85;7.80;;;;;;;;;;4958492;28;20447;-66
2023/05/07 00:56:10;;;;;;;14.87;9.57;;;;;;;;;;4954672;28;20503;-66
2023/05/07 00:58:36;;;;;;;13.35;10.05;;;;;;;;;;4958221;28;20045;-66
2023/05/07 01:01:02;;;;;;;9.75;6.80;;;;;;;;;;4952985;28;20071;-66
2023/05/07 01:03:27;;;;;;;14.13;9.15;;;;;;;;;;4961514;28;20130;-66
2023/05/07 01:05:54;;;;;;;14.30;8.80;;;;;;;;;;4978696;28;20132;-66
2023/05/07 01:08:21;;;;;;;14.57;9.52;;;;;;;;;;4963638;28;20096;-66
2023/05/07 01:10:46;;;;;;;16.17;9.93;;;;;;;;;;4977432;28;20050;-66
2023/05/07 01:13:13;;;;;;;14.98;10.07;;;;;;;;;;4977031;28;20038;-66
2023/05/07 01:15:40;;;;;;;14.55;10.38;;;;;;;;;;4959734;28;20095;-66
2023/05/07 01:18:06;;;;;;;11.85;7.28;;;;;;;;;;4970905;28;20123;-66
2023/05/07 01:20:32;;;;;;;15.63;10.25;;;;;;;;;;4979454;28;20483;-66
2023/05/07 01:22:59;;;;;;;11.27;7.90;;;;;;;;;;4975872;28;20176;-64
2023/05/07 01:25:25;;;;;;;14.70;10.10;;;;;;;;;;4987463;28;20430;-66
2023/05/07 01:27:50;;;;;;;11.48;7.30;;;;;;;;;;4975293;28;20054;-67
2023/05/07 01:30:20;;;;;;;15.70;10.07;;;;;;;;;;4960148;28;20496;-66
2023/05/07 01:32:53;;;;;;;14.80;9.93;;;;;;;;;;4972145;28;20035;-67
2023/05/07 01:35:22;;;;;;;14.10;9.18;;;;;;;;;;4968257;28;20503;-66
2023/05/07 01:37:47;;;;;;;7.43;4.30;;;;;;;;;;4957327;28;20502;-66
2023/05/07 01:40:13;;;;;;;14.40;9.55;;;;;;;;;;4956584;28;20046;-65
2023/05/07 01:42:39;;;;;;;17.25;10.52;;;;;;;;;;4934661;28;20644;-66
2023/05/07 01:45:06;;;;;;;13.38;9.98;;;;;;;;;;4960685;28;20087;-65
2023/05/07 01:47:32;;;;;;;14.57;9.32;;;;;;;;;;4976360;28;20122;-66
2023/05/07 01:49:58;;;;;;;15.05;10.93;;;;;;;;;;4965817;28;20046;-65
2023/05/07 01:52:24;;;;;;;13.98;9.25;;;;;;;;;;4969670;28;20039;-66
2023/05/07 01:54:50;;;;;;;13.60;8.77;;;;;;;;;;4940982;28;20046;-65
2023/05/07 01:57:15;;;;;;;8.10;4.75;;;;;;;;;;4969498;28;20049;-66
2023/05/07 01:59:41;;;;;;;7.55;4.53;;;;;;;;;;4973406;28;20129;-65
2023/05/07 02:02:06;;;;;;;14.73;9.13;;;;;;;;;;4952908;28;20039;-66
2023/05/07 02:04:31;;;;;;;12.07;8.30;;;;;;;;;;4967691;28;20034;-65
2023/05/07 02:06:57;;;;;;;9.90;6.38;;;;;;;;;;4974771;28;20042;-65
2023/05/07 02:09:23;;;;;;;12.88;8.63;;;;;;;;;;4958924;28;20046;-66
2023/05/07 02:11:48;;;;;;;12.52;8.93;;;;;;;;;;4977355;28;20069;-66
2023/05/07 02:14:15;;;;;;;13.40;8.52;;;;;;;;;;4972608;28;20065;-65
2023/05/07 02:16:40;;;;;;;10.55;7.57;;;;;;;;;;4962136;28;20053;-66
2023/05/07 02:19:06;;;;;;;10.15;6.32;;;;;;;;;;4963586;28;20030;-65
2023/05/07 02:21:31;;;;;;;10.52;6.45;;;;;;;;;;4979281;28;20033;-66
2023/05/07 02:23:56;;;;;;;12.98;8.82;;;;;;;;;;4957429;28;20038;-65
2023/05/07 02:26:22;;;;;;;11.23;8.05;;;;;;;;;;4979580;28;20045;-66
2023/05/07 02:28:47;;;;;;;11.90;8.05;;;;;;;;;;4974646;28;20491;-65
2023/05/07 02:31:12;;;;;;;13.13;8.65;;;;;;;;;;4967122;28;20130;-66
2023/05/07 02:33:38;;;;;;;12.48;9.13;;;;;;;;;;4968655;28;20070;-66
2023/05/07 02:36:10;;;;;;;8.55;4.95;;;;;;;;;;4959971;28;20118;-64
2023/05/07 02:38:36;;;;;;;10.77;6.97;;;;;;;;;;4950468;28;20045;-67
2023/05/07 02:41:01;;;;;;;10.95;6.80;;;;;;;;;;4956599;28;20034;-64
2023/05/07 02:43:27;;;;;;;11.77;8.20;;;;;;;;;;4965879;28;20503;-64
2023/05/07 02:46:06;;;;;;;12.80;8.73;;;;;;;;;;4976127;28;20041;-66
2023/05/07 02:48:31;;;;;;;11.25;7.45;;;;;;;;;;4958686;28;20555;-65
2023/05/07 02:50:58;;;;;;;11.82;8.05;;;;;;;;;;4929850;28;20049;-67
2023/05/07 02:53:25;;;;;;;11.25;8.25;;;;;;;;;;4978369;28;20030;-66
2023/05/07 02:55:52;;;;;;;11.70;7.70;;;;;;;;;;4976997;28;20045;-63
2023/05/07 02:58:17;;;;;;;12.32;7.78;;;;;;;;;;4961839;28;20118;-66
2023/05/07 03:00:42;;;;;;;10.93;7.35;;;;;;;;;;4948211;28;20688;-64
2023/05/07 03:03:08;;;;;;;9.98;6.45;;;;;;;;;;4955061;28;20046;-67
2023/05/07 03:05:33;;;;;;;11.57;7.50;;;;;;;;;;4943761;28;20047;-65
2023/05/07 03:07:59;;;;;;;10.73;7.10;;;;;;;;;;4956966;28;20579;-64
2023/05/07 03:10:24;;;;;;;12.43;7.47;;;;;;;;;;4950915;28;20050;-65
2023/05/07 03:12:50;;;;;;;11.45;7.30;;;;;;;;;;4952982;28;20066;-64
2023/05/07 03:15:15;;;;;;;12.40;7.30;;;;;;;;;;4958281;28;20062;-65
2023/05/07 03:17:41;;;;;;;10.65;7.07;;;;;;;;;;4938665;28;20043;-65
2023/05/07 03:20:07;;;;;;;11.88;7.00;;;;;;;;;;4946320;28;20040;-63
2023/05/07 03:22:32;;;;;;;11.18;7.18;;;;;;;;;;4957515;28;20086;-63
2023/05/07 03:24:58;;;;;;;11.57;7.45;;;;;;;;;;4976649;28;20030;-65
2023/05/07 03:27:23;;;;;;;12.52;7.13;;;;;;;;;;4963356;28;20062;-63
2023/05/07 03:29:49;;;;;;;13.00;7.50;;;;;;;;;;4955734;28;20398;-65
2023/05/07 03:32:14;;;;;;;4.55;2.85;;;;;;;;;;4937935;28;20121;-66
2023/05/07 03:34:40;;;;;;;7.20;3.90;;;;;;;;;;4973562;28;20172;-64
2023/05/07 03:37:05;;;;;;;9.35;5.72;;;;;;;;;;4985017;28;20573;-66
2023/05/07 03:39:31;;;;;;;11.85;7.47;;;;;;;;;;4977154;28;20038;-67
2023/05/07 03:41:57;;;;;;;13.50;7.43;;;;;;;;;;4975521;28;20045;-67
2023/05/07 03:44:23;;;;;;;10.77;6.50;;;;;;;;;;4972666;28;20046;-63
2023/05/07 03:46:48;;;;;;;13.60;7.40;;;;;;;;;;4953530;28;20274;-64
2023/05/07 03:49:14;;;;;;;12.23;7.07;;;;;;;;;;4958626;28;20038;-67
2023/05/07 03:51:39;;;;;;;8.55;4.95;;;;;;;;;;4968130;28;20054;-64
2023/05/07 03:54:05;;;;;;;9.43;6.22;;;;;;;;;;4961036;28;20403;-64
2023/05/07 03:56:31;;;;;;;8.43;5.10;;;;;;;;;;4966173;28;20743;-67
2023/05/07 03:58:56;;;;;;;12.23;7.20;;;;;;;;;;4984804;28;20045;-63
2023/05/07 04:01:22;;;;;;;11.98;7.10;;;;;;;;;;4938072;28;20035;-66
2023/05/07 04:03:47;;;;;;;10.55;7.10;;;;;;;;;;4956692;28;20675;-68
2023/05/07 04:06:12;;;;;;;9.88;6.00;;;;;;;;;;4962869;28;20145;-66
2023/05/07 04:08:38;;;;;;;12.75;7.68;;;;;;;;;;4981760;28;20060;-67
2023/05/07 04:11:03;;;;;;;10.32;7.28;;;;;;;;;;4979659;28;20121;-66
2023/05/07 04:13:30;;;;;;;9.75;6.38;;;;;;;;;;4976516;28;20046;-67
2023/05/07 04:15:55;;;;;;;12.68;7.35;;;;;;;;;;4933088;28;20042;-65
2023/05/07 04:18:21;;;;;;;8.90;6.03;;;;;;;;;;4955995;28;20385;-65
2023/05/07 04:20:47;;;;;;;7.15;4.65;;;;;;;;;;4965940;28;20030;-67
2023/05/07 04:23:13;;;;;;;12.93;8.35;;;;;;;;;;4958703;28;20039;-64
2023/05/07 04:25:38;;;;;;;11.10;7.70;;;;;;;;;;4976240;28;20046;-64
2023/05/07 04:28:04;;;;;;;15.90;7.70;;;;;;;;;;4979573;28;20030;-67
2023/05/07 04:30:29;;;;;;;12.70;8.57;;;;;;;;;;4935747;28;20046;-66
2023/05/07 04:32:55;;;;;;;11.00;7.25;;;;;;;;;;4973292;28;20392;-64
2023/05/07 04:35:21;;;;;;;11.80;7.22;;;;;;;;;;4955095;28;20035;-64
2023/05/07 04:37:47;;;;;;;12.30;7.00;;;;;;;;;;4961115;28;20289;-64
2023/05/07 04:40:12;;;;;;;11.82;7.70;;;;;;;;;;4957765;28;20082;-67
2023/05/07 04:42:38;;;;;;;12.60;8.50;;;;;;;;;;4967720;28;20125;-67
2023/05/07 04:45:05;;;;;;;10.55;6.75;;;;;;;;;;4954586;28;20066;-64
2023/05/07 04:47:30;;;;;;;11.50;7.20;;;;;;;;;;4954091;28;20062;-65
2023/05/07 04:49:57;;;;;;;12.32;7.15;;;;;;;;;;4964359;28;20070;-64
2023/05/07 04:52:22;;;;;;;10.10;6.60;;;;;;;;;;4979010;28;20049;-64
2023/05/07 04:54:47;;;;;;;11.57;7.40;;;;;;;;;;4975555;28;20038;-64
2023/05/07 04:57:13;;;;;;;11.65;7.13;;;;;;;;;;4954028;28;20049;-63
2023/05/07 04:59:38;;;;;;;11.90;6.47;;;;;;;;;;4972703;28;20033;-64
2023/05/07 05:02:06;;;;;;;11.32;6.15;;;;;;;;;;4974358;28;20190;-65
2023/05/07 05:04:32;;;;;;;11.38;6.30;;;;;;;;;;4977541;28;20750;-66
2023/05/07 05:06:58;;;;;;;10.30;7.00;;;;;;;;;;4965362;28;20043;-63
2023/05/07 05:09:23;;;;;;;12.73;6.28;;;;;;;;;;4959326;28;20109;-63
2023/05/07 05:11:48;;;;;;;10.48;6.53;;;;;;;;;;4940246;28;20684;-65
2023/05/07 05:14:14;;;;;;;11.98;6.32;;;;;;;;;;4962363;28;20057;-63
2023/05/07 05:16:39;;;;;;;10.30;5.70;;;;;;;;;;4972343;28;20547;-64
2023/05/07 05:19:04;;;;;;;9.88;6.18;;;;;;;;;;4971621;28;20104;-63
2023/05/07 05:21:31;;;;;;;8.93;5.45;;;;;;;;;;4968711;28;20034;-63
2023/05/07 05:23:57;;;;;;;9.98;5.95;;;;;;;;;;4964971;28;20419;-63
2023/05/07 05:26:22;;;;;;;10.85;5.32;;;;;;;;;;4956231;28;20049;-64
2023/05/07 05:28:47;;;;;;;9.40;4.97;;;;;;;;;;4970037;28;20042;-63
2023/05/07 05:31:14;;;;;;;9.45;5.85;;;;;;;;;;4964853;28;20042;-63
2023/05/07 05:33:39;;;;;;;9.52;5.53;;;;;;;;;;4942117;28;20520;-64
2023/05/07 05:36:06;;;;;;;9.90;5.45;;;;;;;;;;4950218;28;20099;-64
2023/05/07 05:38:31;;;;;;;8.50;5.38;;;;;;;;;;4973616;28;20165;-64
2023/05/07 05:40:56;;;;;;;6.82;2.90;;;;;;;;;;4955261;28;20042;-64
2023/05/07 05:43:22;;;;;;;11.40;6.28;;;;;;;;;;4972196;28;20031;-64
2023/05/07 05:45:47;;;;;;;12.02;7.18;;;;;;;;;;4969498;28;20049;-66
2023/05/07 05:48:12;;;;;;;9.07;4.80;;;;;;;;;;4955039;28;20100;-63
2023/05/07 05:50:38;;;;;;;10.27;6.25;;;;;;;;;;4974938;28;20511;-67
2023/05/07 05:53:04;;;;;;;9.13;5.78;;;;;;;;;;4958950;28;20448;-63
2023/05/07 05:55:30;;;;;;;11.10;5.85;;;;;;;;;;4958225;28;20053;-63
2023/05/07 05:57:56;;;;;;;10.32;6.25;;;;;;;;;;4968825;28;20047;-63
2023/05/07 06:00:22;;;;;;;11.10;6.03;;;;;;;;;;4973880;28;20498;-63
2023/05/07 06:02:48;;;;;;;12.77;6.68;;;;;;;;;;4974475;28;20120;-63
2023/05/07 06:05:13;;;;;;;5.22;3.55;;;;;;;;;;4972435;28;20129;-64
2023/05/07 06:07:39;;;;;;;8.98;4.78;;;;;;;;;;4949044;28;20101;-64
2023/05/07 06:10:05;;;;;;;11.27;5.65;;;;;;;;;;4975827;28;20604;-63
2023/05/07 06:12:30;;;;;;;10.73;5.85;;;;;;;;;;4967989;28;20426;-63
2023/05/07 06:14:55;;;;;;;9.55;6.20;;;;;;;;;;4973697;28;20034;-64
2023/05/07 06:17:21;;;;;;;11.13;6.10;;;;;;;;;;4970777;28;20050;-64
2023/05/07 06:19:46;;;;;;;11.50;6.53;;;;;;;;;;4969325;28;20049;-67
2023/05/07 06:22:12;;;;;;;11.63;6.32;;;;;;;;;;4939358;28;20112;-66
2023/05/07 06:24:37;;;;;;;11.20;6.40;;;;;;;;;;4971690;28;20038;-64
2023/05/07 06:27:02;;;;;;;9.88;6.03;;;;;;;;;;4958547;28;20038;-62
2023/05/07 06:29:31;;;;;;;9.88;5.88;;;;;;;;;;4966275;28;20049;-63
2023/05/07 06:31:56;;;;;;;10.60;6.07;;;;;;;;;;4968762;28;20137;-63
2023/05/07 06:34:22;;;;;;;10.82;6.40;;;;;;;;;;4973561;28;20519;-64
2023/05/07 06:36:47;;;;;;;7.05;4.57;;;;;;;;;;4935727;28;20039;-66
2023/05/07 06:39:12;;;;;;;12.43;6.78;;;;;;;;;;4971926;28;20034;-64
2023/05/07 06:41:38;;;;;;;10.07;5.97;;;;;;;;;;4971175;28;20050;-67
2023/05/07 06:44:04;;;;;;;12.40;6.55;;;;;;;;;;4976143;28;20099;-66
2023/05/07 06:46:30;;;;;;;9.90;5.22;;;;;;;;;;4975051;28;20087;-65
2023/05/07 06:48:56;;;;;;;8.85;5.82;;;;;;;;;;4970335;28;20049;-66
2023/05/07 06:51:22;;;;;;;10.73;6.13;;;;;;;;;;4909908;28;20044;-65
2023/05/07 06:53:47;;;;;;;12.68;6.22;;;;;;;;;;4973318;28;20041;-66
2023/05/07 06:56:13;;;;;;;11.52;5.88;;;;;;;;;;4977022;28;20046;-65
2023/05/07 06:58:38;;;;;;;10.63;6.10;;;;;;;;;;4969153;28;20034;-65
2023/05/07 07:01:04;;;;;;;7.75;3.78;;;;;;;;;;4969995;28;20069;-68
2023/05/07 07:03:30;;;;;;;12.60;6.40;;;;;;;;;;4943300;28;20047;-69
2023/05/07 07:05:55;;;;;;;11.20;6.07;;;;;;;;;;4968014;28;20399;-67
2023/05/07 07:08:22;;;;;;;9.93;5.50;;;;;;;;;;4953905;28;20050;-67
2023/05/07 07:10:47;;;;;;;4.85;2.85;;;;;;;;;;4947758;28;20030;-70
2023/05/07 07:13:13;;;;;;;9.10;5.07;;;;;;;;;;4970115;28;20056;-65
2023/05/07 07:15:39;;;;;;;11.35;6.63;;;;;;;;;;4973816;28;20044;-67
2023/05/07 07:18:05;;;;;;;11.20;5.72;;;;;;;;;;4954494;28;20495;-66
2023/05/07 07:20:30;;;;;;;10.70;6.00;;;;;;;;;;4972493;28;20088;-67
2023/05/07 07:22:56;;;;;;;10.07;5.60;;;;;;;;;;4970596;28;20042;-67
2023/05/07 07:25:21;;;;;;;10.20;6.13;;;;;;;;;;4974802;28;20434;-67
2023/05/07 07:27:46;;;;;;;9.25;5.93;;;;;;;;;;4974598;28;20503;-67
2023/05/07 07:30:12;;;;;;;5.72;3.92;;;;;;;;;;4972961;28;20035;-66
2023/05/07 07:32:37;;;;;;;7.60;4.18;;;;;;;;;;4950582;28;20049;-68
2023/05/07 07:35:03;;;;;;;9.25;5.35;;;;;;;;;;4969787;28;20046;-66
2023/05/07 07:37:29;;;;;;;11.38;6.65;;;;;;;;;;4974408;28;20081;-66
2023/05/07 07:39:55;;;;;;;11.90;6.25;;;;;;;;;;4971297;28;20038;-67
2023/05/07 07:42:20;;;;;;;11.45;6.53;;;;;;;;;;4963743;28;20034;-67
2023/05/07 07:44:46;;;;;;;9.45;6.00;;;;;;;;;;4964430;28;20038;-66
2023/05/07 07:47:11;;;;;;;11.77;6.40;;;;;;;;;;4954850;28;20468;-67
2023/05/07 07:49:39;;;;;;;11.05;6.85;;;;;;;;;;4982531;28;20045;-65
2023/05/07 07:52:04;;;;;;;9.70;6.82;;;;;;;;;;4972217;28;20041;-67
2023/05/07 07:54:30;;;;;;;9.77;6.07;;;;;;;;;;4971292;28;20038;-66
2023/05/07 07:56:55;;;;;;;10.07;6.85;;;;;;;;;;4973878;28;20042;-67
2023/05/07 07:59:21;;;;;;;10.60;6.65;;;;;;;;;;4973964;28;20574;-65
2023/05/07 08:01:49;;;;;;;11.75;7.10;;;;;;;;;;4958712;28;20085;-67
2023/05/07 08:04:15;;;;;;;9.35;5.25;;;;;;;;;;4976087;28;20038;-66
2023/05/07 08:06:41;;;;;;;6.60;3.85;;;;;;;;;;4977261;28;20045;-67
2023/05/07 08:09:06;;;;;;;7.53;4.20;;;;;;;;;;4976464;28;20073;-66
2023/05/07 08:11:32;;;;;;;10.52;6.53;;;;;;;;;;4976942;28;20169;-66
2023/05/07 08:13:57;;;;;;;10.95;7.20;;;;;;;;;;4965224;28;20142;-67
2023/05/07 08:16:23;;;;;;;13.85;8.88;;;;;;;;;;4963179;28;20050;-67
2023/05/07 08:18:48;;;;;;;10.50;7.18;;;;;;;;;;4969259;28;20038;-67
2023/05/07 08:21:13;;;;;;;9.77;6.38;;;;;;;;;;4969648;28;20034;-67
2023/05/07 08:23:39;;;;;;;13.23;7.85;;;;;;;;;;4958625;28;20061;-67
2023/05/07 08:26:04;;;;;;;10.82;7.32;;;;;;;;;;4973073;28;20046;-67
2023/05/07 08:28:30;;;;;;;14.40;8.40;;;;;;;;;;4955648;28;20042;-66
2023/05/07 08:30:56;;;;;;;10.88;7.55;;;;;;;;;;4956853;28;20648;-65
2023/05/07 08:33:22;;;;;;;11.73;7.32;;;;;;;;;;4960016;28;20490;-65
2023/05/07 08:35:47;;;;;;;11.57;7.50;;;;;;;;;;4974406;28;20034;-67
2023/05/07 08:38:12;;;;;;;11.77;7.53;;;;;;;;;;4974151;28;20506;-66
2023/05/07 08:40:39;;;;;;;11.93;8.00;;;;;;;;;;4970126;28;20045;-65
2023/05/07 08:43:08;;;;;;;13.00;8.60;;;;;;;;;;4953135;28;20038;-66
2023/05/07 08:45:34;;;;;;;11.88;8.55;;;;;;;;;;4966526;28;20072;-67
2023/05/07 08:48:05;;;;;;;9.35;6.53;;;;;;;;;;4964716;28;20046;-66
2023/05/07 08:50:30;;;;;;;11.87;8.37;;;;;;;;;;4961320;28;20049;-66
2023/05/07 08:52:56;;;;;;;12.65;7.95;;;;;;;;;;4969383;28;20034;-65
2023/05/07 08:55:25;;;;;;;8.27;5.60;;;;;;;;;;4962547;28;20043;-66
2023/05/07 08:57:52;;;;;;;8.80;6.43;;;;;;;;;;4949361;28;20174;-66
2023/05/07 09:00:17;;;;;;;13.13;8.93;;;;;;;;;;4963901;28;20074;-65
2023/05/07 09:02:43;;;;;;;15.15;10.38;;;;;;;;;;4960405;28;20554;-66
2023/05/07 09:05:08;;;;;;;15.00;9.90;;;;;;;;;;4975146;28;20034;-66
2023/05/07 09:07:34;;;;;;;15.13;9.20;;;;;;;;;;4957962;28;20030;-66
2023/05/07 09:10:02;;;;;;;13.32;8.98;;;;;;;;;;4950120;28;20060;-67
2023/05/07 09:12:28;;;;;;;12.23;9.32;;;;;;;;;;4961556;28;20121;-66
2023/05/07 09:14:53;;;;;;;14.70;9.77;;;;;;;;;;4954772;28;20239;-65
2023/05/07 09:17:18;;;;;;;14.25;8.20;;;;;;;;;;4958930;28;20046;-67
2023/05/07 09:19:45;;;;;;;12.45;8.52;;;;;;;;;;4975558;28;20030;-67
2023/05/07 09:22:11;;;;;;;14.55;9.13;;;;;;;;;;4971983;28;20653;-69
2023/05/07 09:24:37;;;;;;;13.43;8.25;;;;;;;;;;4958094;28;20128;-69
2023/05/07 09:27:06;;;;;;;13.18;9.27;;;;;;;;;;4971589;28;20046;-70
2023/05/07 09:29:35;;;;;;;15.32;9.57;;;;;;;;;;4969475;28;20050;-69
2023/05/07 09:32:05;;;;;;;8.25;4.63;;;;;;;;;;4969545;28;20137;-69
2023/05/07 09:34:31;;;;;;;13.57;7.80;;;;;;;;;;4958434;28;20070;-70
2023/05/07 09:37:00;;;;;;;16.98;11.05;;;;;;;;;;4957289;28;20049;-69
2023/05/07 09:39:25;;;;;;;14.02;8.68;;;;;;;;;;4968265;28;20102;-69
2023/05/07 09:41:54;;;;;;;13.05;8.48;;;;;;;;;;4975358;28;20127;-69
2023/05/07 09:44:20;;;;;;;14.85;9.57;;;;;;;;;;4970965;28;20763;-69
2023/05/07 09:46:49;;;;;;;15.02;9.32;;;;;;;;;;4944594;28;20436;-68
2023/05/07 09:49:22;;;;;;;14.82;10.15;;;;;;;;;;4961864;28;20034;-69
2023/05/07 09:51:49;;;;;;;14.57;9.30;;;;;;;;;;4933469;28;20047;-69
2023/05/07 09:54:16;;;;;;;10.27;7.38;;;;;;;;;;4972183;28;20049;-69
2023/05/07 09:56:43;;;;;;;8.07;5.60;;;;;;;;;;4973505;28;20069;-69
2023/05/07 09:59:12;;;;;;;7.05;5.32;;;;;;;;;;4971019;28;20642;-69
2023/05/07 10:01:40;;;;;;;16.13;9.00;;;;;;;;;;4968467;28;20144;-69
2023/05/07 10:04:08;;;;;;;15.30;9.95;;;;;;;;;;4948790;28;20042;-68
2023/05/07 10:06:34;;;;;;;10.57;6.65;;;;;;;;;;4975881;28;20049;-69
2023/05/07 10:09:00;;;;;;;14.35;9.32;;;;;;;;;;4974779;28;20042;-68
2023/05/07 10:11:26;;;;;;;15.10;9.52;;;;;;;;;;4974742;28;20713;-69
2023/05/07 10:13:53;;;;;;;13.27;8.63;;;;;;;;;;4977005;28;20038;-69
2023/05/07 10:16:20;;;;;;;11.60;7.97;;;;;;;;;;4973456;28;20407;-70
2023/05/07 10:18:46;;;;;;;14.73;9.80;;;;;;;;;;4939188;28;20070;-69
2023/05/07 10:21:18;;;;;;;5.38;3.58;;;;;;;;;;4972881;28;20034;-69
2023/05/07 10:23:46;;;;;;;12.20;9.18;;;;;;;;;;4977607;28;20041;-69
2023/05/07 10:26:12;;;;;;;13.88;9.32;;;;;;;;;;4972023;28;20053;-69
2023/05/07 10:28:40;;;;;;;13.30;8.43;;;;;;;;;;4973061;28;20052;-69
2023/05/07 10:31:33;;;;;;;14.68;9.63;;;;;;;;;;4940893;28;20073;-69
2023/05/07 10:34:01;;;;;;;9.73;7.13;;;;;;;;;;4965230;28;20102;-69
2023/05/07 10:36:27;;;;;;;11.73;7.30;;;;;;;;;;4959843;28;20042;-69
2023/05/07 10:38:54;;;;;;;16.25;10.38;;;;;;;;;;4969945;28;20052;-69
2023/05/07 10:41:21;;;;;;;15.55;10.00;;;;;;;;;;4953407;28;20045;-69
2023/05/07 10:43:46;;;;;;;15.57;10.82;;;;;;;;;;4971789;28;20483;-69
2023/05/07 10:46:22;;;;;;;10.38;7.47;;;;;;;;;;4972780;28;20054;-69
2023/05/07 10:49:03;;;;;;;12.60;9.52;;;;;;;;;;4972839;28;20042;-69
2023/05/07 10:51:34;;;;;;;12.60;9.50;;;;;;;;;;4972560;28;20132;-69
2023/05/07 10:54:20;;;;;;;14.15;8.23;;;;;;;;;;4930425;28;20042;-69
2023/05/07 10:56:47;;;;;;;13.27;9.73;;;;;;;;;;4962751;28;20078;-69
2023/05/07 10:59:27;;;;;;;13.52;9.63;;;;;;;;;;4952946;28;20038;-69
2023/05/07 11:02:06;;;;;;;11.88;9.02;;;;;;;;;;4964046;28;20125;-69
2023/05/07 11:04:34;;;;;;;13.27;9.65;;;;;;;;;;4954126;28;20125;-69
2023/05/07 11:07:08;;;;;;;11.98;8.85;;;;;;;;;;4966551;28;20053;-69
2023/05/07 11:09:52;;;;;;;10.32;8.52;;;;;;;;;;4965445;28;20128;-68
2023/05/07 11:12:35;;;;;;;10.85;8.60;;;;;;;;;;4956680;28;20069;-69
2023/05/07 11:15:10;;;;;;;11.27;8.80;;;;;;;;;;4945283;28;20035;-69
2023/05/07 11:17:55;;;;;;;11.57;8.73;;;;;;;;;;4971083;28;20054;-69
2023/05/07 11:20:21;;;;;;;6.75;4.68;;;;;;;;;;4972160;28;20037;-69
2023/05/07 11:22:47;;;;;;;10.00;7.80;;;;;;;;;;4975935;28;20061;-69
2023/05/07 11:25:19;;;;;;;12.07;9.02;;;;;;;;;;4953147;28;20145;-70
2023/05/07 11:27:44;;;;;;;12.40;8.20;;;;;;;;;;4953706;28;20095;-69
2023/05/07 11:30:11;;;;;;;11.27;7.78;;;;;;;;;;4969813;28;20501;-69
2023/05/07 11:32:36;;;;;;;9.88;7.80;;;;;;;;;;4977725;28;20042;-69
2023/05/07 11:35:02;;;;;;;10.80;7.68;;;;;;;;;;4961071;28;20034;-68
2023/05/07 11:37:30;;;;;;;11.35;8.23;;;;;;;;;;4950582;28;20045;-69
2023/05/07 11:40:10;;;;;;;12.05;7.93;;;;;;;;;;4951053;28;20033;-70
2023/05/07 11:42:37;;;;;;;7.78;5.90;;;;;;;;;;4956273;28;20153;-69
2023/05/07 11:45:04;;;;;;;12.43;8.50;;;;;;;;;;4956707;28;20672;-68
2023/05/07 11:47:32;;;;;;;10.82;8.52;;;;;;;;;;4965511;28;20429;-69
2023/05/07 11:50:03;;;;;;;13.02;9.02;;;;;;;;;;4967913;28;20161;-68
2023/05/07 11:52:28;;;;;;;12.02;8.50;;;;;;;;;;4929203;28;20098;-68
2023/05/07 11:54:56;;;;;;;12.77;9.75;;;;;;;;;;4956836;28;20046;-69
2023/05/07 11:57:23;;;;;;;11.68;8.80;;;;;;;;;;4970826;28;20491;-68
2023/05/07 11:59:55;;;;;;;12.52;8.63;;;;;;;;;;4974203;28;20048;-68
2023/05/07 12:02:21;;;;;;;8.77;6.38;;;;;;;;;;4951447;28;20038;-68
2023/05/07 12:04:46;;;;;;;8.52;6.60;;;;;;;;;;4957359;28;20031;-69
2023/05/07 12:07:15;;;;;;;10.35;6.93;;;;;;;;;;4958116;28;20035;-68
2023/05/07 12:09:45;;;;;;;11.43;8.23;;;;;;;;;;4948511;28;20526;-69
2023/05/07 12:12:11;;;;;;;13.00;8.90;;;;;;;;;;4962588;28;20125;-69
2023/05/07 12:14:40;;;;;;;13.10;8.55;;;;;;;;;;4961165;28;20041;-69
2023/05/07 12:17:07;;;;;;;10.15;7.65;;;;;;;;;;4952331;28;20045;-69
2023/05/07 12:19:34;;;;;;;12.15;8.75;;;;;;;;;;4941993;28;20598;-69
2023/05/07 12:22:02;;;;;;;11.15;8.10;;;;;;;;;;4965448;28;20080;-69
2023/05/07 12:24:27;;;;;;;10.02;7.72;;;;;;;;;;4960245;28;20066;-69
2023/05/07 12:26:53;;;;;;;9.00;7.70;;;;;;;;;;4944339;28;20097;-68
2023/05/07 12:29:22;;;;;;;5.82;4.13;;;;;;;;;;4968401;28;20081;-69
2023/05/07 12:31:49;;;;;;;12.70;8.10;;;;;;;;;;4914199;28;20064;-68
2023/05/07 12:34:15;;;;;;;10.18;7.47;;;;;;;;;;4961425;28;20041;-68
2023/05/07 12:36:40;;;;;;;10.13;8.23;;;;;;;;;;4953671;28;20047;-69
2023/05/07 12:39:10;;;;;;;9.48;7.90;;;;;;;;;;4946438;28;20046;-69
2023/05/07 12:41:54;;;;;;;8.20;6.85;;;;;;;;;;4956651;28;20478;-69
2023/05/07 12:44:22;;;;;;;11.93;8.00;;;;;;;;;;4956221;28;20446;-69
2023/05/07 12:46:48;;;;;;;9.90;6.90;;;;;;;;;;4972758;28;20124;-69
2023/05/07 12:49:13;;;;;;;9.10;7.88;;;;;;;;;;4965858;28;20125;-68
2023/05/07 12:51:39;;;;;;;9.63;7.97;;;;;;;;;;4950757;28;20065;-69
2023/05/07 12:54:04;;;;;;;9.70;7.53;;;;;;;;;;4970710;28;20042;-69
2023/05/07 12:56:35;;;;;;;6.03;4.18;;;;;;;;;;4973179;28;20064;-69
2023/05/07 12:59:01;;;;;;;10.82;8.13;;;;;;;;;;4954451;28;20096;-69
2023/05/07 13:01:33;;;;;;;9.25;8.15;;;;;;;;;;4960487;28;20057;-68
2023/05/07 13:04:03;;;;;;;8.88;6.88;;;;;;;;;;4968386;28;20101;-69
2023/05/07 13:06:30;;;;;;;9.13;7.93;;;;;;;;;;4963014;28;20053;-69
2023/05/07 13:08:56;;;;;;;5.05;4.07;;;;;;;;;;4972176;28;20287;-69
2023/05/07 13:11:22;;;;;;;7.93;6.60;;;;;;;;;;4955920;28;20049;-69
2023/05/07 13:13:48;;;;;;;8.70;7.20;;;;;;;;;;4954500;28;20034;-69
2023/05/07 13:16:13;;;;;;;9.90;7.80;;;;;;;;;;4973248;28;20042;-69
2023/05/07 13:18:40;;;;;;;6.40;5.65;;;;;;;;;;4978467;28;20034;-69
2023/05/07 13:21:05;;;;;;;9.02;6.90;;;;;;;;;;4973778;28;20129;-69
2023/05/07 13:23:31;;;;;;;10.80;7.53;;;;;;;;;;4975592;28;20124;-69
2023/05/07 13:25:56;;;;;;;9.48;7.32;;;;;;;;;;4910537;28;1129365;-69
2023/05/07 13:28:23;;;;;;;9.07;6.68;;;;;;;;;;4963640;28;20050;-69
2023/05/07 13:30:51;;;;;;;6.75;5.78;;;;;;;;;;4971641;28;20034;-69
2023/05/07 13:33:17;;;;;;;8.52;6.45;;;;;;;;;;4973814;28;20069;-70
2023/05/07 13:35:43;;;;;;;7.57;5.63;;;;;;;;;;4964582;28;20054;-69
2023/05/07 13:38:08;;;;;;;9.07;6.40;;;;;;;;;;4963235;28;20054;-69
2023/05/07 13:40:34;;;;;;;7.32;6.05;;;;;;;;;;4961413;28;20057;-69
2023/05/07 13:43:01;;;;;;;7.35;6.30;;;;;;;;;;4970504;28;20112;-69
2023/05/07 13:45:30;;;;;;;8.32;5.47;;;;;;;;;;4958205;28;20175;-69
2023/05/07 13:47:56;;;;;;;6.40;5.47;;;;;;;;;;4960285;28;20045;-70
2023/05/07 13:50:22;;;;;;;9.18;6.13;;;;;;;;;;4956640;28;20485;-69
2023/05/07 13:52:50;;;;;;;7.95;6.40;;;;;;;;;;4953513;28;20121;-69
2023/05/07 13:55:17;;;;;;;6.85;5.68;;;;;;;;;;4971916;28;20046;-69
2023/05/07 13:57:43;;;;;;;4.63;3.13;;;;;;;;;;4967889;28;20085;-69
2023/05/07 14:00:09;;;;;;;6.80;5.70;;;;;;;;;;4973004;28;20527;-69
2023/05/07 14:02:34;;;;;;;8.45;6.97;;;;;;;;;;4977372;28;20066;-69
2023/05/07 14:05:00;;;;;;;8.18;6.28;;;;;;;;;;4972427;28;20531;-69
2023/05/07 14:07:25;;;;;;;7.57;6.40;;;;;;;;;;4937697;28;20160;-69
2023/05/07 14:09:50;;;;;;;6.63;5.78;;;;;;;;;;4975492;28;20033;-69
2023/05/07 14:12:16;;;;;;;7.95;6.10;;;;;;;;;;4971203;28;20030;-69
2023/05/07 14:14:41;;;;;;;7.30;6.07;;;;;;;;;;4972866;28;20062;-69
2023/05/07 14:17:08;;;;;;;7.28;6.53;;;;;;;;;;4973930;28;20577;-69
2023/05/07 14:19:33;;;;;;;8.02;6.13;;;;;;;;;;4971758;28;20057;-68
2023/05/07 14:21:59;;;;;;;8.55;7.15;;;;;;;;;;4935790;28;20559;-69
2023/05/07 14:24:24;;;;;;;8.00;7.00;;;;;;;;;;4971878;28;20035;-69
2023/05/07 14:26:50;;;;;;;7.32;6.43;;;;;;;;;;4957396;28;20042;-69
2023/05/07 14:29:18;;;;;;;8.63;6.47;;;;;;;;;;4970932;28;20587;-69